createdAt,value
2019-03-21T00:01:22.510Z,99.90
2019-03-21T00:03:53.766Z,99.90
2019-03-21T00:06:23.053Z,99.90
2019-03-21T00:08:52.816Z,99.90
2019-03-21T00:11:57.366Z,99.90
2019-03-21T00:14:58.166Z,99.90
2019-03-21T00:17:30.466Z,99.90
2019-03-21T00:19:59.776Z,99.90
2019-03-21T00:22:29.334Z,99.90
2019-03-21T00:24:58.874Z,99.90
2019-03-21T00:27:28.403Z,99.90
2019-03-21T00:29:57.715Z,99.90
2019-03-21T00:32:27.229Z,99.90
2019-03-21T00:34:56.749Z,99.90
2019-03-21T00:37:26.050Z,99.90
2019-03-21T00:39:55.319Z,99.90
2019-03-21T00:42:24.859Z,99.90
2019-03-21T00:44:54.289Z,99.90
2019-03-21T00:47:23.798Z,99.90
2019-03-21T00:49:53.058Z,99.90
2019-03-21T00:52:22.607Z,99.90
2019-03-21T00:54:51.872Z,99.90
2019-03-21T00:57:21.162Z,99.90
2019-03-21T00:59:50.937Z,99.90
2019-03-21T01:02:20.194Z,99.90
2019-03-21T01:04:49.479Z,99.90
2019-03-21T01:07:19.043Z,99.90
2019-03-21T01:09:48.346Z,99.90
2019-03-21T01:12:18.068Z,99.90
2019-03-21T01:14:47.583Z,99.90
2019-03-21T01:17:17.106Z,99.90
2019-03-21T01:19:46.365Z,99.90
2019-03-21T01:22:16.147Z,99.90
2019-03-21T01:24:45.434Z,99.90
2019-03-21T01:27:14.689Z,99.90
2019-03-21T01:29:44.223Z,99.90
2019-03-21T01:32:13.494Z,99.90
2019-03-21T01:34:43.296Z,99.90
2019-03-21T01:37:12.644Z,99.90
2019-03-21T01:39:42.386Z,99.90
2019-03-21T01:42:11.951Z,99.90
2019-03-21T01:44:41.538Z,99.90
2019-03-21T01:47:10.866Z,99.90
2019-03-21T01:49:40.408Z,99.90
2019-03-21T01:52:09.682Z,99.90
2019-03-21T01:54:39.196Z,99.90
2019-03-21T01:57:08.503Z,99.90
2019-03-21T01:59:37.778Z,99.90
2019-03-21T02:02:07.540Z,99.90
2019-03-21T02:04:37.089Z,99.90
2019-03-21T02:07:06.448Z,99.90
2019-03-21T02:09:35.990Z,99.90
2019-03-21T02:12:05.624Z,99.90
2019-03-21T02:14:34.987Z,99.90
2019-03-21T02:17:04.375Z,99.90
2019-03-21T02:19:33.706Z,99.90
2019-03-21T02:22:03.003Z,99.90
2019-03-21T02:24:32.297Z,99.90
2019-03-21T02:27:01.568Z,99.90
2019-03-21T02:29:31.871Z,99.90
2019-03-21T02:32:01.431Z,99.90
2019-03-21T02:34:30.707Z,99.90
2019-03-21T02:37:00.262Z,99.90
2019-03-21T02:39:29.682Z,99.90
2019-03-21T02:41:59.045Z,99.90
2019-03-21T02:44:28.709Z,99.90
2019-03-21T02:46:58.232Z,99.90
2019-03-21T02:49:27.765Z,99.90
2019-03-21T02:51:57.606Z,99.90
2019-03-21T02:54:26.886Z,99.90
2019-03-21T02:56:56.713Z,99.90
2019-03-21T02:59:26.251Z,99.90
2019-03-21T03:01:55.587Z,99.90
2019-03-21T03:04:24.919Z,99.90
2019-03-21T03:06:55.187Z,99.90
2019-03-21T03:09:24.495Z,99.90
2019-03-21T03:11:56.828Z,99.90
2019-03-21T03:14:26.339Z,99.90
2019-03-21T03:16:55.652Z,99.90
2019-03-21T03:19:24.928Z,99.90
2019-03-21T03:21:54.195Z,99.90
2019-03-21T03:24:25.719Z,99.90
2019-03-21T03:26:57.595Z,99.90
2019-03-21T03:29:26.905Z,99.90
2019-03-21T03:31:56.185Z,99.90
2019-03-21T03:34:25.564Z,99.90
2019-03-21T03:36:55.200Z,99.90
2019-03-21T03:39:24.462Z,99.90
2019-03-21T03:41:53.807Z,99.90
2019-03-21T03:44:23.102Z,99.90
2019-03-21T03:46:56.763Z,99.90
2019-03-21T03:49:26.044Z,99.90
2019-03-21T03:51:55.416Z,99.90
2019-03-21T03:54:24.700Z,99.90
2019-03-21T03:56:54.300Z,99.90
2019-03-21T03:59:23.655Z,99.90
2019-03-21T04:01:53.036Z,99.90
2019-03-21T04:04:22.771Z,99.90
2019-03-21T04:06:52.584Z,99.90
2019-03-21T04:09:22.032Z,99.90
2019-03-21T04:11:51.466Z,99.90
2019-03-21T04:14:20.740Z,99.90
2019-03-21T04:16:50.688Z,99.90
2019-03-21T04:19:20.463Z,99.90
2019-03-21T04:21:49.975Z,99.90
2019-03-21T04:24:19.401Z,99.90
2019-03-21T04:26:48.991Z,99.90
2019-03-21T04:29:18.254Z,99.90
2019-03-21T04:31:47.556Z,99.90
2019-03-21T04:34:17.083Z,99.90
2019-03-21T04:36:46.923Z,99.90
2019-03-21T04:39:16.738Z,99.90
2019-03-21T04:41:46.385Z,99.90
2019-03-21T04:44:15.985Z,99.90
2019-03-21T04:46:45.534Z,99.90
2019-03-21T04:49:14.825Z,99.90
2019-03-21T04:51:44.360Z,99.90
2019-03-21T04:54:13.936Z,99.90
2019-03-21T04:56:43.523Z,99.90
2019-03-21T04:59:12.798Z,99.90
2019-03-21T05:01:42.068Z,99.90
2019-03-21T05:04:11.389Z,99.90
2019-03-21T05:06:40.579Z,99.90
2019-03-21T05:09:13.291Z,99.90
2019-03-21T05:11:45.847Z,99.90
2019-03-21T05:14:15.114Z,99.90
2019-03-21T05:16:44.620Z,99.90
2019-03-21T05:19:14.289Z,99.90
2019-03-21T05:21:43.595Z,99.90
2019-03-21T05:24:13.017Z,99.90
2019-03-21T05:26:42.568Z,99.90
2019-03-21T05:29:12.071Z,99.90
2019-03-21T05:31:41.367Z,99.90
2019-03-21T05:34:10.746Z,99.90
2019-03-21T05:36:40.061Z,99.90
2019-03-21T05:39:10.485Z,99.90
2019-03-21T05:41:40.178Z,99.90
2019-03-21T05:44:20.786Z,99.90
2019-03-21T05:46:50.072Z,99.90
2019-03-21T05:49:19.363Z,99.90
2019-03-21T05:51:48.906Z,99.90
2019-03-21T05:54:18.219Z,99.90
2019-03-21T05:56:48.213Z,99.90
2019-03-21T05:59:18.419Z,99.90
2019-03-21T06:01:48.108Z,99.90
2019-03-21T06:04:17.887Z,99.90
2019-03-21T06:07:10.375Z,99.90
2019-03-21T06:09:40.129Z,99.90
2019-03-21T06:12:09.442Z,99.90
2019-03-21T06:14:41.821Z,99.90
2019-03-21T06:17:11.186Z,99.90
2019-03-21T06:19:54.590Z,99.90
2019-03-21T06:23:04.031Z,99.90
2019-03-21T06:25:45.842Z,99.90
2019-03-21T06:28:15.134Z,99.90
2019-03-21T06:30:44.412Z,99.90
2019-03-21T06:33:13.714Z,99.90
2019-03-21T06:35:42.995Z,99.90
2019-03-21T06:38:12.596Z,99.90
2019-03-21T06:40:42.403Z,99.90
2019-03-21T06:43:11.959Z,99.90
2019-03-21T06:45:47.848Z,99.90
2019-03-21T06:48:12.921Z,99.90
2019-03-21T06:50:42.977Z,99.90
2019-03-21T06:53:12.517Z,99.90
2019-03-21T06:55:42.133Z,99.90
2019-03-21T06:58:11.725Z,99.90
2019-03-21T07:00:41.078Z,99.90
2019-03-21T07:03:10.583Z,99.90
2019-03-21T07:05:40.144Z,99.90
2019-03-21T07:08:09.415Z,99.90
2019-03-21T07:10:39.289Z,99.90
2019-03-21T07:13:08.923Z,99.90
2019-03-21T07:15:38.481Z,99.90
2019-03-21T07:18:07.992Z,99.90
2019-03-21T07:20:37.538Z,99.90
2019-03-21T07:23:07.075Z,99.90
2019-03-21T07:25:36.910Z,99.90
2019-03-21T07:28:06.201Z,99.90
2019-03-21T07:30:35.573Z,99.90
2019-03-21T07:33:05.012Z,99.90
2019-03-21T07:35:34.357Z,99.90
2019-03-21T07:38:03.668Z,99.90
2019-03-21T07:40:32.957Z,99.90
2019-03-21T07:43:02.581Z,99.90
2019-03-21T07:45:32.502Z,99.90
2019-03-21T07:48:02.043Z,99.90
2019-03-21T07:50:31.651Z,99.90
2019-03-21T07:53:01.103Z,99.90
2019-03-21T07:55:33.774Z,99.90
2019-03-21T07:58:03.624Z,99.90
2019-03-21T08:00:33.146Z,99.90
2019-03-21T08:03:02.848Z,99.90
2019-03-21T08:05:40.161Z,99.90
2019-03-21T08:08:03.396Z,99.90
2019-03-21T08:10:35.370Z,99.90
2019-03-21T08:13:05.046Z,99.90
2019-03-21T08:15:34.605Z,99.90
2019-03-21T08:18:06.128Z,99.90
2019-03-21T08:20:38.678Z,99.90
2019-03-21T08:23:08.003Z,99.90
2019-03-21T08:25:37.913Z,99.90
2019-03-21T08:28:07.251Z,99.90
2019-03-21T08:30:37.245Z,99.90
2019-03-21T08:33:06.852Z,99.90
2019-03-21T08:35:36.175Z,99.90
2019-03-21T08:38:05.581Z,99.90
2019-03-21T08:40:35.433Z,99.90
2019-03-21T08:43:04.882Z,99.90
2019-03-21T08:45:34.493Z,99.90
2019-03-21T08:48:04.146Z,99.90
2019-03-21T08:50:33.628Z,99.90
2019-03-21T08:53:03.207Z,99.90
2019-03-21T08:55:33.685Z,99.50
2019-03-21T08:58:03.351Z,99.60
2019-03-21T09:00:34.423Z,99.90
2019-03-21T09:03:03.995Z,99.30
2019-03-21T09:05:33.662Z,99.30
2019-03-21T09:08:03.138Z,99.80
2019-03-21T09:10:34.507Z,98.50
2019-03-21T09:13:04.555Z,99.20
2019-03-21T09:15:34.034Z,99.00
2019-03-21T09:18:03.438Z,98.50
2019-03-21T09:20:33.382Z,99.10
2019-03-21T09:23:02.706Z,99.20
2019-03-21T09:25:32.701Z,99.40
2019-03-21T09:28:03.090Z,98.30
2019-03-21T09:30:32.898Z,98.60
2019-03-21T09:33:02.236Z,98.50
2019-03-21T09:35:31.823Z,98.70
2019-03-21T09:38:01.682Z,98.90
2019-03-21T09:40:31.318Z,98.10
2019-03-21T09:43:03.029Z,99.20
2019-03-21T09:45:32.206Z,97.60
2019-03-21T09:48:01.687Z,96.80
2019-03-21T09:50:33.090Z,96.50
2019-03-21T09:53:02.549Z,97.30
2019-03-21T09:55:31.878Z,98.10
2019-03-21T09:58:01.513Z,96.80
2019-03-21T10:00:33.318Z,97.40
2019-03-21T10:03:03.770Z,96.60
2019-03-21T10:05:33.364Z,95.00
2019-03-21T10:08:04.704Z,94.60
2019-03-21T10:10:34.222Z,94.80
2019-03-21T10:13:05.580Z,94.30
2019-03-21T10:15:36.654Z,94.70
2019-03-21T10:18:07.003Z,94.10
2019-03-21T10:20:36.688Z,93.20
2019-03-21T10:23:06.277Z,93.50
2019-03-21T10:25:35.700Z,93.50
2019-03-21T10:28:05.291Z,93.70
2019-03-21T10:30:39.278Z,94.50
2019-03-21T10:33:10.791Z,93.30
2019-03-21T10:35:40.685Z,92.40
2019-03-21T10:38:10.233Z,92.00
2019-03-21T10:40:40.063Z,92.00
2019-03-21T10:43:10.619Z,92.10
2019-03-21T10:45:40.250Z,92.70
2019-03-21T10:48:09.555Z,93.30
2019-03-21T10:50:43.150Z,93.70
2019-03-21T10:53:12.413Z,92.30
2019-03-21T10:55:41.718Z,90.70
2019-03-21T10:58:11.279Z,90.60
2019-03-21T11:00:40.998Z,90.10
2019-03-21T11:03:10.341Z,89.30
2019-03-21T11:05:40.023Z,91.70
2019-03-21T11:08:09.742Z,86.90
2019-03-21T11:10:39.291Z,89.30
2019-03-21T11:13:08.978Z,84.90
2019-03-21T11:15:38.250Z,84.80
2019-03-21T11:18:07.884Z,85.20
2019-03-21T11:20:38.670Z,83.00
2019-03-21T11:23:08.670Z,87.10
2019-03-21T11:25:38.780Z,85.10
2019-03-21T11:28:08.546Z,85.80
2019-03-21T11:30:42.325Z,79.90
2019-03-21T11:33:12.026Z,83.30
2019-03-21T11:35:42.155Z,77.90
2019-03-21T11:38:11.735Z,82.70
2019-03-21T11:40:41.225Z,77.80
2019-03-21T11:43:15.486Z,77.40
2019-03-21T11:45:47.679Z,74.30
2019-03-21T11:48:16.914Z,74.60
2019-03-21T11:50:46.229Z,71.50
2019-03-21T11:53:15.874Z,67.50
2019-03-21T11:55:48.317Z,67.00
2019-03-21T11:58:17.982Z,64.60
2019-03-21T12:00:47.686Z,74.70
2019-03-21T12:03:17.563Z,72.20
2019-03-21T12:05:48.024Z,68.50
2019-03-21T12:08:17.602Z,64.10
2019-03-21T12:10:46.911Z,60.30
2019-03-21T12:13:16.250Z,64.00
2019-03-21T12:15:45.662Z,58.40
2019-03-21T12:18:15.866Z,60.50
2019-03-21T12:20:45.254Z,59.60
2019-03-21T12:23:14.798Z,63.90
2019-03-21T12:25:44.094Z,62.90
2019-03-21T12:28:13.926Z,66.90
2019-03-21T12:30:43.748Z,61.70
2019-03-21T12:33:13.529Z,62.70
2019-03-21T12:35:42.815Z,63.30
2019-03-21T12:38:12.508Z,62.80
2019-03-21T12:40:42.136Z,62.80
2019-03-21T12:43:11.401Z,58.80
2019-03-21T12:45:41.029Z,57.10
2019-03-21T12:48:10.369Z,56.40
2019-03-21T12:50:39.658Z,56.30
2019-03-21T12:53:09.198Z,53.50
2019-03-21T12:55:38.614Z,53.60
2019-03-21T12:58:08.434Z,53.20
2019-03-21T13:00:42.180Z,49.00
2019-03-21T13:03:11.878Z,50.10
2019-03-21T13:05:41.309Z,49.20
2019-03-21T13:08:11.184Z,50.90
2019-03-21T13:10:40.987Z,52.00
2019-03-21T13:13:11.095Z,50.50
2019-03-21T13:15:41.350Z,50.20
2019-03-21T13:18:11.410Z,50.80
2019-03-21T13:20:42.032Z,51.00
2019-03-21T13:23:11.888Z,48.40
2019-03-21T13:25:42.548Z,48.00
2019-03-21T13:28:12.319Z,47.60
2019-03-21T13:30:43.350Z,45.50
2019-03-21T13:33:12.780Z,47.70
2019-03-21T13:35:42.090Z,47.60
2019-03-21T13:38:11.748Z,48.20
2019-03-21T13:40:41.367Z,45.20
2019-03-21T13:43:12.035Z,45.90
2019-03-21T13:45:46.363Z,49.40
2019-03-21T13:48:16.003Z,48.60
2019-03-21T13:50:45.303Z,46.70
2019-03-21T13:53:19.022Z,45.60
2019-03-21T13:55:47.914Z,44.20
2019-03-21T13:58:22.833Z,44.20
2019-03-21T14:00:54.713Z,44.20
2019-03-21T14:03:25.549Z,44.80
2019-03-21T14:05:55.738Z,43.90
2019-03-21T14:08:25.326Z,43.80
2019-03-21T14:10:55.376Z,44.80
2019-03-21T14:13:25.652Z,44.00
2019-03-21T14:15:57.840Z,45.60
2019-03-21T14:18:30.083Z,43.80
2019-03-21T14:21:00.197Z,44.90
2019-03-21T14:23:30.259Z,43.40
2019-03-21T14:26:00.570Z,43.00
2019-03-21T14:29:13.298Z,43.10
2019-03-21T14:32:23.682Z,42.70
2019-03-21T14:35:45.224Z,43.60
2019-03-21T14:38:25.372Z,43.50
2019-03-21T14:40:46.200Z,40.70
2019-03-21T14:43:15.537Z,40.00
2019-03-21T14:45:46.438Z,39.70
2019-03-21T14:48:16.282Z,38.30
2019-03-21T14:50:47.941Z,38.50
2019-03-21T14:53:28.263Z,39.80
2019-03-21T14:55:48.417Z,37.60
2019-03-21T14:58:17.741Z,38.10
2019-03-21T15:00:47.044Z,37.60
2019-03-21T15:03:17.061Z,36.50
2019-03-21T15:05:46.710Z,36.30
2019-03-21T15:08:16.432Z,34.60
2019-03-21T15:10:45.958Z,35.00
2019-03-21T15:13:15.358Z,35.20
2019-03-21T15:15:44.668Z,34.60
2019-03-21T15:18:14.022Z,34.40
2019-03-21T15:20:43.586Z,34.50
2019-03-21T15:23:12.911Z,33.80
2019-03-21T15:25:42.331Z,32.60
2019-03-21T15:28:12.336Z,33.20
2019-03-21T15:30:42.844Z,33.40
2019-03-21T15:33:12.405Z,33.20
2019-03-21T15:35:42.025Z,34.10
2019-03-21T15:38:11.664Z,33.50
2019-03-21T15:40:41.010Z,33.60
2019-03-21T15:43:10.411Z,33.10
2019-03-21T15:45:39.797Z,33.20
2019-03-21T15:48:09.460Z,33.50
2019-03-21T15:50:38.865Z,33.00
2019-03-21T15:53:09.431Z,32.80
2019-03-21T15:55:38.785Z,34.20
2019-03-21T15:58:08.145Z,33.80
2019-03-21T16:00:39.207Z,36.00
2019-03-21T16:03:09.661Z,37.00
2019-03-21T16:05:39.214Z,39.00
2019-03-21T16:08:09.459Z,40.80
2019-03-21T16:10:39.049Z,40.80
2019-03-21T16:13:08.669Z,40.30
2019-03-21T16:15:38.183Z,40.50
2019-03-21T16:18:07.645Z,38.90
2019-03-21T16:20:37.063Z,38.70
2019-03-21T16:23:06.435Z,38.40
2019-03-21T16:25:35.759Z,38.80
2019-03-21T16:28:05.214Z,39.10
2019-03-21T16:30:35.001Z,39.00
2019-03-21T16:33:04.488Z,37.40
2019-03-21T16:35:33.831Z,37.10
2019-03-21T16:38:03.159Z,38.00
2019-03-21T16:40:32.811Z,38.10
2019-03-21T16:43:02.090Z,37.50
2019-03-21T16:45:31.374Z,37.70
2019-03-21T16:48:00.754Z,37.70
2019-03-21T16:50:30.467Z,38.10
2019-03-21T16:53:00.222Z,38.70
2019-03-21T16:55:29.810Z,39.20
2019-03-21T16:57:59.094Z,40.20
2019-03-21T17:00:28.378Z,41.20
2019-03-21T17:02:57.766Z,41.90
2019-03-21T17:05:27.400Z,43.10
2019-03-21T17:07:57.068Z,44.30
2019-03-21T17:10:26.630Z,45.10
2019-03-21T17:12:55.937Z,46.20
2019-03-21T17:15:25.458Z,47.40
2019-03-21T17:17:55.107Z,48.30
2019-03-21T17:20:24.729Z,49.50
2019-03-21T17:22:54.277Z,50.50
2019-03-21T17:25:23.745Z,51.80
2019-03-21T17:27:54.823Z,53.50
2019-03-21T17:30:24.030Z,55.50
2019-03-21T17:32:53.839Z,56.40
2019-03-21T17:35:23.102Z,59.90
2019-03-21T17:37:52.631Z,65.90
2019-03-21T17:40:22.247Z,71.00
2019-03-21T17:42:52.073Z,74.60
2019-03-21T17:45:21.527Z,78.60
2019-03-21T17:47:51.066Z,81.60
2019-03-21T17:50:21.727Z,83.30
2019-03-21T17:52:51.006Z,85.30
2019-03-21T17:55:20.798Z,87.10
2019-03-21T17:57:50.397Z,88.00
2019-03-21T18:00:21.512Z,90.10
2019-03-21T18:02:51.039Z,91.10
2019-03-21T18:05:20.674Z,91.60
2019-03-21T18:07:50.491Z,91.90
2019-03-21T18:10:30.129Z,92.40
2019-03-21T18:13:00.218Z,92.70
2019-03-21T18:15:29.781Z,93.00
2019-03-21T18:17:59.629Z,93.40
2019-03-21T18:20:28.981Z,93.90
2019-03-21T18:22:58.420Z,94.40
2019-03-21T18:25:28.230Z,94.70
2019-03-21T18:27:57.694Z,94.90
2019-03-21T18:30:27.130Z,94.90
2019-03-21T18:32:56.765Z,95.30
2019-03-21T18:35:26.149Z,95.20
2019-03-21T18:37:55.699Z,95.20
2019-03-21T18:40:25.009Z,95.40
2019-03-21T18:42:54.961Z,96.00
2019-03-21T18:45:24.394Z,95.90
2019-03-21T18:47:53.811Z,95.80
2019-03-21T18:50:23.600Z,96.20
2019-03-21T18:52:53.523Z,96.70
2019-03-21T18:55:23.678Z,96.30
2019-03-21T18:57:54.307Z,96.70
2019-03-21T19:00:23.794Z,97.20
2019-03-21T19:02:53.628Z,97.40
2019-03-21T19:05:24.020Z,97.70
2019-03-21T19:07:53.824Z,97.80
2019-03-21T19:10:23.264Z,98.10
2019-03-21T19:12:52.635Z,98.20
2019-03-21T19:15:23.787Z,98.40
2019-03-21T19:17:53.358Z,98.60
2019-03-21T19:20:23.466Z,98.20
2019-03-21T19:22:53.121Z,97.80
2019-03-21T19:25:22.826Z,97.70
2019-03-21T19:27:52.887Z,98.30
2019-03-21T19:30:22.671Z,98.60
2019-03-21T19:32:52.367Z,98.90
2019-03-21T19:35:22.442Z,99.20
2019-03-21T19:37:51.785Z,99.30
2019-03-21T19:40:21.453Z,99.40
2019-03-21T19:42:51.314Z,99.50
2019-03-21T19:45:21.740Z,99.70
2019-03-21T19:47:51.795Z,99.70
2019-03-21T19:50:22.281Z,99.80
2019-03-21T19:52:52.115Z,99.80
2019-03-21T19:55:30.898Z,99.90
2019-03-21T19:57:53.086Z,99.90
2019-03-21T20:00:22.854Z,99.90
2019-03-21T20:02:52.372Z,99.90
2019-03-21T20:05:21.891Z,99.90
2019-03-21T20:07:52.070Z,99.90
2019-03-21T20:10:22.566Z,99.90
2019-03-21T20:12:53.456Z,99.90
2019-03-21T20:15:23.342Z,99.90
2019-03-21T20:17:52.691Z,99.90
2019-03-21T20:20:25.692Z,99.90
2019-03-21T20:22:55.469Z,99.90
2019-03-21T20:25:25.510Z,99.90
2019-03-21T20:27:55.767Z,99.90
2019-03-21T20:30:25.169Z,99.90
2019-03-21T20:32:55.005Z,99.90
2019-03-21T20:35:24.493Z,99.90
2019-03-21T20:37:53.879Z,99.90
2019-03-21T20:40:23.492Z,99.90
2019-03-21T20:42:53.057Z,99.90
2019-03-21T20:45:22.514Z,99.90
2019-03-21T20:47:54.094Z,99.90
2019-03-21T20:50:25.195Z,99.90
2019-03-21T20:52:55.463Z,99.90
2019-03-21T20:55:25.251Z,99.90
2019-03-21T20:57:54.852Z,99.90
2019-03-21T21:00:24.621Z,99.90
2019-03-21T21:02:54.664Z,99.90
2019-03-21T21:05:24.719Z,99.90
2019-03-21T21:07:54.440Z,99.90
2019-03-21T21:10:23.868Z,99.90
2019-03-21T21:12:53.499Z,99.90
2019-03-21T21:15:23.029Z,99.90
2019-03-21T21:17:52.594Z,99.90
2019-03-21T21:20:21.988Z,99.90
2019-03-21T21:22:51.305Z,99.90
2019-03-21T21:25:20.569Z,99.90
2019-03-21T21:27:50.389Z,99.90
2019-03-21T21:30:20.727Z,99.90
2019-03-21T21:32:50.244Z,99.90
2019-03-21T21:35:19.918Z,99.90
2019-03-21T21:37:49.525Z,99.90
2019-03-21T21:40:21.637Z,99.90
2019-03-21T21:42:51.141Z,99.90
2019-03-21T21:45:24.247Z,99.90
2019-03-21T21:47:53.847Z,99.90
2019-03-21T21:50:23.223Z,99.90
2019-03-21T21:52:52.590Z,99.90
2019-03-21T21:55:22.133Z,99.90
2019-03-21T21:57:51.950Z,99.90
2019-03-21T22:00:21.711Z,99.90
2019-03-21T22:02:51.323Z,99.90
2019-03-21T22:05:20.615Z,99.90
2019-03-21T22:07:49.891Z,99.90
2019-03-21T22:10:21.537Z,99.90
2019-03-21T22:12:50.874Z,99.90
2019-03-21T22:15:20.133Z,99.90
2019-03-21T22:17:49.426Z,99.90
2019-03-21T22:20:19.019Z,99.90
2019-03-21T22:22:48.351Z,99.90
2019-03-21T22:25:17.705Z,99.90
2019-03-21T22:27:46.965Z,99.90
2019-03-21T22:30:16.591Z,99.90
2019-03-21T22:32:46.098Z,99.90
2019-03-21T22:35:15.457Z,99.90
2019-03-21T22:37:45.342Z,99.90
2019-03-21T22:40:15.108Z,99.90
2019-03-21T22:42:44.683Z,99.90
2019-03-21T22:45:14.234Z,99.90
2019-03-21T22:47:44.575Z,99.90
2019-03-21T22:50:15.361Z,99.90
2019-03-21T22:52:45.195Z,99.90
2019-03-21T22:55:14.641Z,99.90
2019-03-21T22:57:43.954Z,99.90
2019-03-21T23:00:18.358Z,99.90
2019-03-21T23:02:49.061Z,99.90
2019-03-21T23:05:19.352Z,99.90
2019-03-21T23:07:48.626Z,99.90
2019-03-21T23:10:18.071Z,99.90
2019-03-21T23:12:47.428Z,99.90
2019-03-21T23:15:17.120Z,99.90
2019-03-21T23:17:46.713Z,99.90
2019-03-21T23:20:16.317Z,99.90
2019-03-21T23:22:45.602Z,99.90
2019-03-21T23:25:16.708Z,99.90
2019-03-21T23:27:46.378Z,99.90
2019-03-21T23:30:16.029Z,99.90
2019-03-21T23:32:45.585Z,99.90
2019-03-21T23:35:16.106Z,99.90
2019-03-21T23:37:46.029Z,99.90
2019-03-21T23:40:15.880Z,99.90
2019-03-21T23:42:45.290Z,99.90
2019-03-21T23:45:15.459Z,99.90
2019-03-21T23:47:44.837Z,99.90
2019-03-21T23:50:14.421Z,99.90
2019-03-21T23:52:43.907Z,99.90
2019-03-21T23:55:13.687Z,99.90
2019-03-21T23:57:42.970Z,99.90
